createdAt,value
2022-12-04T00:01:19.150Z,11.90
2022-12-04T00:03:46.007Z,11.43
2022-12-04T00:06:15.568Z,10.88
2022-12-04T00:08:42.854Z,11.63
2022-12-04T00:11:11.452Z,12.02
2022-12-04T00:13:38.752Z,10.70
2022-12-04T00:16:07.356Z,10.65
2022-12-04T00:18:34.648Z,11.88
2022-12-04T00:21:08.038Z,11.75
2022-12-04T00:23:36.085Z,10.63
2022-12-04T00:26:04.997Z,11.25
2022-12-04T00:28:31.973Z,11.35
2022-12-04T00:30:58.726Z,12.10
2022-12-04T00:33:25.343Z,11.38
2022-12-04T00:35:59.305Z,11.25
2022-12-04T00:38:26.322Z,11.02
2022-12-04T00:40:53.632Z,11.88
2022-12-04T00:43:20.684Z,11.00
2022-12-04T00:45:47.126Z,11.07
2022-12-04T00:48:13.582Z,10.40
2022-12-04T00:50:40.479Z,11.73
2022-12-04T00:53:07.063Z,10.93
2022-12-04T00:55:33.527Z,11.40
2022-12-04T00:58:00.315Z,10.85
2022-12-04T01:00:26.890Z,10.50
2022-12-04T01:02:53.731Z,10.25
2022-12-04T01:05:20.277Z,10.75
2022-12-04T01:07:46.844Z,11.23
2022-12-04T01:10:13.657Z,11.30
2022-12-04T01:12:40.077Z,10.73
2022-12-04T01:15:06.931Z,11.23
2022-12-04T01:17:33.399Z,11.88
2022-12-04T01:19:59.839Z,10.65
2022-12-04T01:22:26.280Z,11.02
2022-12-04T01:24:56.118Z,9.88
2022-12-04T01:27:23.400Z,11.63
2022-12-04T01:29:50.170Z,9.98
2022-12-04T01:32:16.993Z,10.65
2022-12-04T01:34:43.484Z,10.45
2022-12-04T01:37:09.963Z,11.45
2022-12-04T01:39:37.501Z,10.55
2022-12-04T01:42:04.887Z,12.55
2022-12-04T01:44:32.260Z,11.07
2022-12-04T01:47:00.727Z,11.55
2022-12-04T01:49:36.620Z,12.82
2022-12-04T01:52:19.748Z,11.40
2022-12-04T01:54:49.829Z,12.05
2022-12-04T01:57:19.050Z,11.15
2022-12-04T01:59:53.421Z,11.60
2022-12-04T02:02:27.457Z,10.98
2022-12-04T02:04:54.660Z,9.88
2022-12-04T02:07:21.112Z,11.40
2022-12-04T02:09:53.897Z,11.63
2022-12-04T02:12:24.183Z,11.13
2022-12-04T02:15:16.597Z,10.38
2022-12-04T02:17:59.587Z,12.48
2022-12-04T02:20:33.698Z,11.50
2022-12-04T02:23:06.192Z,10.60
2022-12-04T02:25:38.710Z,11.75
2022-12-04T02:28:09.326Z,11.98
2022-12-04T02:30:39.895Z,11.05
2022-12-04T02:33:21.708Z,10.02
2022-12-04T02:35:55.106Z,11.85
2022-12-04T02:38:27.060Z,11.75
2022-12-04T02:41:17.221Z,11.27
2022-12-04T02:43:57.908Z,11.73
2022-12-04T02:46:34.255Z,12.13
2022-12-04T02:49:03.381Z,10.52
2022-12-04T02:51:34.637Z,11.40
2022-12-04T02:54:09.237Z,10.20
2022-12-04T02:56:40.999Z,10.73
2022-12-04T02:59:17.312Z,10.57
2022-12-04T03:01:48.970Z,12.02
2022-12-04T03:04:23.474Z,12.13
2022-12-04T03:06:57.286Z,11.25
2022-12-04T03:09:28.459Z,10.57
2022-12-04T03:12:00.788Z,9.77
2022-12-04T03:14:41.173Z,11.00
2022-12-04T03:17:17.854Z,11.85
2022-12-04T03:19:50.910Z,10.77
2022-12-04T03:24:56.580Z,11.20
2022-12-04T03:27:36.494Z,12.38
2022-12-04T03:30:10.366Z,11.35
2022-12-04T03:32:55.791Z,10.75
2022-12-04T03:35:40.693Z,11.75
2022-12-04T03:38:15.299Z,11.07
2022-12-04T03:40:47.484Z,13.52
2022-12-04T03:43:23.029Z,12.43
2022-12-04T03:46:15.930Z,11.13
2022-12-04T03:49:08.566Z,11.35
2022-12-04T03:52:16.477Z,11.80
2022-12-04T03:55:14.739Z,11.35
2022-12-04T03:57:44.547Z,11.07
2022-12-04T04:00:15.660Z,10.93
2022-12-04T04:02:50.788Z,11.57
2022-12-04T04:05:18.010Z,10.27
2022-12-04T04:07:55.716Z,11.68
2022-12-04T04:10:26.536Z,10.40
2022-12-04T04:13:20.801Z,11.48
2022-12-04T04:16:12.832Z,12.07
2022-12-04T04:19:00.329Z,11.02
2022-12-04T04:21:49.199Z,12.75
2022-12-04T04:24:43.157Z,11.68
2022-12-04T04:27:09.650Z,12.40
2022-12-04T04:29:36.669Z,11.98
2022-12-04T04:32:31.174Z,11.05
2022-12-04T04:35:12.307Z,11.00
2022-12-04T04:37:38.694Z,10.63
2022-12-04T04:40:20.187Z,11.75
2022-12-04T04:43:15.861Z,11.50
2022-12-04T04:45:53.680Z,11.43
2022-12-04T04:48:28.672Z,13.57
2022-12-04T04:50:55.711Z,11.82
2022-12-04T04:53:29.572Z,13.70
2022-12-04T04:55:57.035Z,12.15
2022-12-04T04:58:23.517Z,12.35
2022-12-04T05:01:01.164Z,11.55
2022-12-04T05:03:28.417Z,10.90
2022-12-04T05:05:55.027Z,11.20
2022-12-04T05:08:22.249Z,11.32
2022-12-04T05:10:48.782Z,11.60
2022-12-04T05:13:15.962Z,12.07
2022-12-04T05:15:42.533Z,12.07
2022-12-04T05:18:09.273Z,12.20
2022-12-04T05:20:39.198Z,11.43
2022-12-04T05:23:07.271Z,11.43
2022-12-04T05:25:33.701Z,11.68
2022-12-04T05:28:00.169Z,11.13
2022-12-04T05:30:26.662Z,9.90
2022-12-04T05:32:53.168Z,11.82
2022-12-04T05:35:19.683Z,11.48
2022-12-04T05:37:48.973Z,10.85
2022-12-04T05:40:15.753Z,11.15
2022-12-04T05:42:42.477Z,11.10
2022-12-04T05:45:09.672Z,12.68
2022-12-04T05:47:42.616Z,12.00
2022-12-04T05:50:14.572Z,13.07
2022-12-04T05:52:41.310Z,9.48
2022-12-04T05:55:08.365Z,12.02
2022-12-04T05:57:37.544Z,11.02
2022-12-04T06:00:06.162Z,12.77
2022-12-04T06:02:34.324Z,11.82
2022-12-04T06:05:01.002Z,11.32
2022-12-04T06:07:27.586Z,10.90
2022-12-04T06:09:55.405Z,11.73
2022-12-04T06:12:22.105Z,9.90
2022-12-04T06:14:48.543Z,11.88
2022-12-04T06:17:15.083Z,10.35
2022-12-04T06:19:41.787Z,10.50
2022-12-04T06:22:11.225Z,11.75
2022-12-04T06:24:38.734Z,10.68
2022-12-04T06:27:26.745Z,12.30
2022-12-04T06:29:52.153Z,9.40
2022-12-04T06:32:21.859Z,11.65
2022-12-04T06:34:52.914Z,9.82
2022-12-04T06:37:20.803Z,10.45
2022-12-04T06:39:47.318Z,10.82
2022-12-04T06:42:13.833Z,10.60
2022-12-04T06:44:40.290Z,10.40
2022-12-04T06:47:06.718Z,10.32
2022-12-04T06:49:33.206Z,10.32
2022-12-04T06:51:59.678Z,10.05
2022-12-04T06:54:26.565Z,10.60
2022-12-04T06:56:53.041Z,10.82
2022-12-04T06:59:19.551Z,10.48
2022-12-04T07:01:46.080Z,9.20
2022-12-04T07:04:12.587Z,11.73
2022-12-04T07:06:39.627Z,10.85
2022-12-04T07:09:15.688Z,11.15
2022-12-04T07:11:43.102Z,10.43
2022-12-04T07:14:10.002Z,10.18
2022-12-04T07:16:41.219Z,11.45
2022-12-04T07:19:13.627Z,10.32
2022-12-04T07:21:41.697Z,11.40
2022-12-04T07:24:08.677Z,10.95
2022-12-04T07:26:35.424Z,10.98
2022-12-04T07:29:01.968Z,11.13
2022-12-04T07:31:29.990Z,11.43
2022-12-04T07:33:57.934Z,10.23
2022-12-04T07:36:25.774Z,11.55
2022-12-04T07:38:52.446Z,11.95
2022-12-04T07:41:19.823Z,9.55
2022-12-04T07:43:46.664Z,10.23
2022-12-04T07:46:16.293Z,11.38
2022-12-04T07:48:43.005Z,10.00
2022-12-04T07:51:12.707Z,11.18
2022-12-04T07:53:39.844Z,10.77
2022-12-04T07:56:07.451Z,10.73
2022-12-04T07:58:35.551Z,11.65
2022-12-04T08:01:06.698Z,11.00
2022-12-04T08:03:33.476Z,10.77
2022-12-04T08:06:03.987Z,9.65
2022-12-04T08:08:30.780Z,12.68
2022-12-04T08:10:57.423Z,12.32
2022-12-04T08:13:24.087Z,11.82
2022-12-04T08:15:50.870Z,10.95
2022-12-04T08:18:19.613Z,12.52
2022-12-04T08:20:46.348Z,11.25
2022-12-04T08:23:12.949Z,13.95
2022-12-04T08:25:40.970Z,18.92
2022-12-04T08:28:07.993Z,22.80
2022-12-04T08:30:35.770Z,32.97
2022-12-04T08:33:02.886Z,26.27
2022-12-04T08:35:29.445Z,31.45
2022-12-04T08:37:55.919Z,30.60
2022-12-04T08:40:23.318Z,37.10
2022-12-04T08:42:49.921Z,40.42
2022-12-04T08:45:16.606Z,37.15
2022-12-04T08:47:45.793Z,35.60
2022-12-04T08:50:14.493Z,33.45
2022-12-04T08:52:40.980Z,36.88
2022-12-04T08:55:07.840Z,34.50
2022-12-04T08:57:34.384Z,39.25
2022-12-04T09:00:00.860Z,46.60
2022-12-04T09:02:27.328Z,51.97
2022-12-04T09:04:53.819Z,57.70
2022-12-04T09:07:20.883Z,47.92
2022-12-04T09:09:55.319Z,49.20
2022-12-04T09:12:21.886Z,46.92
2022-12-04T09:14:48.350Z,46.80
2022-12-04T09:17:15.000Z,54.35
2022-12-04T09:19:41.478Z,51.60
2022-12-04T09:22:07.995Z,58.75
2022-12-04T09:24:34.462Z,54.25
2022-12-04T09:27:01.374Z,56.78
2022-12-04T09:29:28.034Z,63.85
2022-12-04T09:31:54.601Z,58.30
2022-12-04T09:34:21.134Z,65.47
2022-12-04T09:36:47.707Z,57.88
2022-12-04T09:39:14.190Z,66.30
2022-12-04T09:42:13.569Z,59.33
2022-12-04T09:44:56.463Z,56.72
2022-12-04T09:47:32.040Z,56.67
2022-12-04T09:50:43.959Z,56.92
2022-12-04T09:53:16.600Z,59.08
2022-12-04T09:55:49.345Z,70.72
2022-12-04T09:58:22.165Z,64.95
2022-12-04T10:03:20.108Z,73.63
2022-12-04T10:05:58.763Z,66.68
2022-12-04T10:08:35.954Z,88.22
2022-12-04T10:11:18.714Z,76.10
2022-12-04T10:14:13.111Z,80.10
2022-12-04T10:16:50.606Z,68.88
2022-12-04T10:19:46.296Z,67.28
2022-12-04T10:22:21.586Z,83.15
2022-12-04T10:24:56.518Z,83.10
2022-12-04T10:27:30.951Z,79.55
2022-12-04T10:30:03.522Z,89.38
2022-12-04T10:32:32.669Z,83.55
2022-12-04T10:35:30.113Z,91.15
2022-12-04T10:38:06.383Z,98.53
2022-12-04T10:40:37.924Z,94.75
2022-12-04T10:43:14.333Z,84.32
2022-12-04T10:45:40.898Z,93.95
2022-12-04T10:48:16.777Z,83.65
2022-12-04T10:50:44.325Z,80.28
2022-12-04T10:53:15.036Z,82.45
2022-12-04T10:55:41.560Z,79.63
2022-12-04T10:58:18.736Z,77.97
2022-12-04T11:00:59.247Z,79.00
2022-12-04T11:03:28.711Z,85.95
2022-12-04T11:06:01.329Z,94.88
2022-12-04T11:08:54.881Z,86.20
2022-12-04T11:11:28.940Z,87.60
2022-12-04T11:14:14.614Z,83.18
2022-12-04T11:16:48.208Z,89.82
2022-12-04T11:19:23.829Z,75.18
2022-12-04T11:21:51.956Z,86.30
2022-12-04T11:24:26.293Z,82.25
2022-12-04T11:26:53.284Z,76.03
2022-12-04T11:29:26.109Z,71.35
2022-12-04T11:34:24.517Z,86.55
2022-12-04T11:36:56.972Z,88.75
2022-12-04T11:39:40.058Z,91.65
2022-12-04T11:44:35.978Z,83.05
2022-12-04T11:47:04.781Z,78.22
2022-12-04T11:49:33.042Z,85.53
2022-12-04T11:52:36.058Z,87.20
2022-12-04T11:55:13.251Z,77.53
2022-12-04T11:57:50.375Z,87.22
2022-12-04T12:00:21.941Z,91.10
2022-12-04T12:03:05.845Z,82.82
2022-12-04T12:06:06.560Z,84.13
2022-12-04T12:08:45.122Z,75.18
2022-12-04T12:11:49.737Z,80.13
2022-12-04T12:14:28.390Z,79.43
2022-12-04T12:17:06.377Z,88.70
2022-12-04T12:19:53.523Z,92.30
2022-12-04T12:22:45.858Z,86.03
2022-12-04T12:25:21.490Z,102.38
2022-12-04T12:28:13.306Z,93.28
2022-12-04T12:30:42.791Z,91.13
2022-12-04T12:33:21.663Z,87.05
2022-12-04T12:36:01.456Z,83.82
2022-12-04T12:38:49.178Z,87.07
2022-12-04T12:41:20.290Z,81.63
2022-12-04T12:44:31.931Z,80.95
2022-12-04T12:47:08.111Z,80.32
2022-12-04T12:49:55.100Z,82.18
2022-12-04T12:52:36.693Z,79.47
2022-12-04T12:55:14.870Z,76.38
2022-12-04T12:57:47.575Z,92.00
2022-12-04T13:00:15.910Z,93.82
2022-12-04T13:02:57.559Z,94.28
2022-12-04T13:05:46.393Z,91.28
2022-12-04T13:08:21.783Z,88.07
2022-12-04T13:11:01.432Z,81.78
2022-12-04T13:13:32.432Z,99.90
2022-12-04T13:16:05.352Z,90.80
2022-12-04T13:18:46.247Z,84.03
2022-12-04T13:21:27.697Z,76.30
2022-12-04T13:24:03.188Z,85.03
2022-12-04T13:26:49.782Z,77.03
2022-12-04T13:29:37.845Z,77.25
2022-12-04T13:32:26.801Z,69.68
2022-12-04T13:35:38.302Z,63.67
2022-12-04T13:38:29.548Z,79.82
2022-12-04T13:41:00.760Z,79.53
2022-12-04T13:43:36.364Z,68.15
2022-12-04T13:46:07.296Z,63.70
2022-12-04T13:48:33.824Z,62.75
2022-12-04T13:51:03.013Z,59.70
2022-12-04T13:53:40.427Z,62.05
2022-12-04T13:56:23.005Z,60.17
2022-12-04T13:58:59.883Z,56.70
2022-12-04T14:01:36.051Z,54.28
2022-12-04T14:04:02.978Z,54.13
2022-12-04T14:06:37.882Z,54.97
2022-12-04T14:09:08.361Z,57.97
2022-12-04T14:11:51.413Z,49.28
2022-12-04T14:17:15.586Z,49.70
2022-12-04T14:19:45.427Z,54.88
2022-12-04T14:22:34.511Z,53.03
2022-12-04T14:25:13.075Z,51.20
2022-12-04T14:27:51.605Z,50.30
2022-12-04T14:30:36.448Z,45.75
2022-12-04T14:33:21.575Z,44.65
2022-12-04T14:35:56.251Z,47.38
2022-12-04T14:38:23.616Z,49.03
2022-12-04T14:40:53.649Z,42.47
2022-12-04T14:43:27.119Z,44.42
2022-12-04T14:46:23.413Z,41.10
2022-12-04T14:49:37.037Z,43.60
2022-12-04T14:52:03.463Z,39.35
2022-12-04T14:54:44.870Z,43.20
2022-12-04T14:57:26.546Z,42.53
2022-12-04T14:59:54.878Z,43.10
2022-12-04T15:02:33.565Z,38.00
2022-12-04T15:05:02.109Z,38.40
2022-12-04T15:07:31.679Z,38.80
2022-12-04T15:10:18.769Z,32.47
2022-12-04T15:12:51.907Z,36.75
2022-12-04T15:15:27.429Z,38.72
2022-12-04T15:18:09.178Z,34.03
2022-12-04T15:20:49.240Z,31.58
2022-12-04T15:23:18.826Z,33.53
2022-12-04T15:25:48.871Z,32.38
2022-12-04T15:28:48.414Z,31.88
2022-12-04T15:31:22.454Z,34.75
2022-12-04T15:33:52.224Z,34.15
2022-12-04T15:36:24.996Z,30.60
2022-12-04T15:38:52.868Z,28.25
2022-12-04T15:41:33.758Z,31.67
2022-12-04T15:44:01.077Z,32.40
2022-12-04T15:46:37.778Z,26.25
2022-12-04T15:49:16.910Z,33.33
2022-12-04T15:51:46.018Z,29.83
2022-12-04T15:54:25.689Z,31.52
2022-12-04T15:57:04.224Z,25.70
2022-12-04T15:59:31.295Z,29.70
2022-12-04T16:02:07.749Z,29.13
2022-12-04T16:04:35.829Z,26.13
2022-12-04T16:07:03.398Z,27.45
2022-12-04T16:09:30.511Z,28.77
2022-12-04T16:12:02.060Z,26.95
2022-12-04T16:14:28.578Z,27.38
2022-12-04T16:17:05.616Z,26.83
2022-12-04T16:19:38.779Z,29.27
2022-12-04T16:22:12.916Z,22.85
2022-12-04T16:24:39.841Z,23.48
2022-12-04T16:27:12.688Z,20.88
2022-12-04T16:29:39.234Z,22.00
2022-12-04T16:32:06.136Z,22.58
2022-12-04T16:34:32.918Z,23.10
2022-12-04T16:36:59.531Z,25.48
2022-12-04T16:39:26.080Z,20.25
2022-12-04T16:41:52.530Z,22.05
2022-12-04T16:44:19.071Z,23.95
2022-12-04T16:46:45.762Z,24.15
2022-12-04T16:49:12.936Z,22.33
2022-12-04T16:51:45.782Z,19.60
2022-12-04T16:56:39.860Z,22.45
2022-12-04T16:59:11.581Z,19.95
2022-12-04T17:01:42.718Z,19.67
2022-12-04T17:04:10.049Z,17.90
2022-12-04T17:06:36.618Z,22.10
2022-12-04T17:09:04.030Z,19.33
2022-12-04T17:11:30.569Z,21.33
2022-12-04T17:13:57.404Z,20.10
2022-12-04T17:16:24.979Z,18.00
2022-12-04T17:18:51.846Z,19.92
2022-12-04T17:21:18.360Z,20.00
2022-12-04T17:23:44.938Z,21.30
2022-12-04T17:26:13.807Z,20.45
2022-12-04T17:28:40.553Z,15.52
2022-12-04T17:31:19.615Z,16.60
2022-12-04T17:33:46.474Z,21.38
2022-12-04T17:36:15.639Z,17.10
2022-12-04T17:38:43.025Z,19.83
2022-12-04T17:41:13.695Z,16.00
2022-12-04T17:43:41.707Z,17.15
2022-12-04T17:46:10.799Z,17.20
2022-12-04T17:48:37.889Z,17.10
2022-12-04T17:51:25.010Z,18.38
2022-12-04T17:53:51.896Z,15.05
2022-12-04T17:56:21.612Z,17.05
2022-12-04T17:58:48.838Z,18.60
2022-12-04T18:01:17.977Z,15.00
2022-12-04T18:03:53.067Z,18.15
2022-12-04T18:06:23.583Z,16.92
2022-12-04T18:08:51.147Z,16.25
2022-12-04T18:11:22.297Z,15.55
2022-12-04T18:13:53.252Z,16.60
2022-12-04T18:16:19.796Z,17.98
2022-12-04T18:18:47.518Z,13.35
2022-12-04T18:21:14.734Z,15.18
2022-12-04T18:23:45.693Z,13.75
2022-12-04T18:26:24.113Z,12.98
2022-12-04T18:28:51.386Z,15.45
2022-12-04T18:31:19.280Z,12.45
2022-12-04T18:33:46.454Z,13.38
2022-12-04T18:36:16.312Z,14.95
2022-12-04T18:38:43.518Z,15.20
2022-12-04T18:41:11.988Z,13.90
2022-12-04T18:43:41.503Z,11.55
2022-12-04T18:46:10.660Z,14.57
2022-12-04T18:48:38.134Z,13.05
2022-12-04T18:51:17.539Z,12.18
2022-12-04T18:53:44.204Z,12.65
2022-12-04T18:56:10.766Z,12.18
2022-12-04T18:58:37.198Z,11.48
2022-12-04T19:01:11.516Z,13.40
2022-12-04T19:03:38.283Z,12.00
2022-12-04T19:06:04.889Z,12.98
2022-12-04T19:08:34.352Z,12.23
2022-12-04T19:11:09.070Z,11.82
2022-12-04T19:13:35.974Z,11.60
2022-12-04T19:16:02.894Z,12.35
2022-12-04T19:18:30.209Z,11.07
2022-12-04T19:20:57.404Z,13.25
2022-12-04T19:23:23.945Z,11.02
2022-12-04T19:26:00.070Z,13.23
2022-12-04T19:28:30.170Z,10.45
2022-12-04T19:30:57.045Z,11.88
2022-12-04T19:33:24.761Z,9.85
2022-12-04T19:36:02.535Z,10.57
2022-12-04T19:38:30.799Z,11.55
2022-12-04T19:41:04.098Z,11.27
2022-12-04T19:43:30.585Z,13.30
2022-12-04T19:45:57.129Z,11.27
2022-12-04T19:48:23.825Z,15.00
2022-12-04T19:50:50.280Z,15.40
2022-12-04T19:53:16.785Z,17.60
2022-12-04T19:55:43.329Z,16.38
2022-12-04T19:58:09.790Z,13.30
2022-12-04T20:00:36.595Z,17.23
2022-12-04T20:03:03.189Z,14.63
2022-12-04T20:05:29.678Z,15.27
2022-12-04T20:07:56.293Z,13.18
2022-12-04T20:10:22.852Z,13.93
2022-12-04T20:12:49.354Z,12.25
2022-12-04T20:15:15.981Z,13.10
2022-12-04T20:17:42.449Z,11.35
2022-12-04T20:20:09.203Z,11.93
2022-12-04T20:22:36.414Z,11.25
2022-12-04T20:25:03.123Z,11.45
2022-12-04T20:27:32.360Z,12.65
2022-12-04T20:29:59.069Z,11.82
2022-12-04T20:32:25.721Z,11.32
2022-12-04T20:34:52.179Z,10.68
2022-12-04T20:37:18.691Z,10.65
2022-12-04T20:39:45.167Z,10.60
2022-12-04T20:42:11.881Z,11.43
2022-12-04T20:44:38.321Z,11.32
2022-12-04T20:47:04.892Z,10.07
2022-12-04T20:49:31.354Z,11.15
2022-12-04T20:51:58.022Z,12.52
2022-12-04T20:54:24.583Z,10.23
2022-12-04T20:56:54.338Z,10.60
2022-12-04T20:59:22.352Z,9.75
2022-12-04T21:01:49.328Z,9.88
2022-12-04T21:04:18.044Z,10.30
2022-12-04T21:06:46.665Z,9.43
2022-12-04T21:09:16.349Z,9.75
2022-12-04T21:11:45.887Z,10.05
2022-12-04T21:14:40.040Z,11.00
2022-12-04T21:17:09.406Z,11.80
2022-12-04T21:19:36.425Z,9.57
2022-12-04T21:22:03.002Z,9.50
2022-12-04T21:24:32.503Z,9.63
2022-12-04T21:26:59.017Z,9.23
2022-12-04T21:29:27.963Z,10.35
2022-12-04T21:31:54.494Z,8.63
2022-12-04T21:34:21.034Z,10.23
2022-12-04T21:36:47.600Z,9.25
2022-12-04T21:39:15.416Z,11.60
2022-12-04T21:42:00.534Z,9.23
2022-12-04T21:44:27.102Z,10.88
2022-12-04T21:46:53.673Z,8.85
2022-12-04T21:49:20.338Z,9.82
2022-12-04T21:52:02.068Z,9.95
2022-12-04T21:54:29.117Z,8.60
2022-12-04T21:56:56.580Z,8.85
2022-12-04T21:59:24.479Z,10.57
2022-12-04T22:01:51.280Z,9.38
2022-12-04T22:04:18.014Z,9.65
2022-12-04T22:06:44.650Z,10.90
2022-12-04T22:09:12.459Z,8.77
2022-12-04T22:11:41.558Z,10.60
2022-12-04T22:14:09.037Z,9.20
2022-12-04T22:16:41.613Z,8.95
2022-12-04T22:19:10.106Z,9.05
2022-12-04T22:21:36.573Z,8.90
2022-12-04T22:24:04.781Z,9.32
2022-12-04T22:26:31.646Z,9.80
2022-12-04T22:28:58.288Z,9.73
2022-12-04T22:31:27.341Z,9.07
2022-12-04T22:33:55.431Z,8.05
2022-12-04T22:36:25.346Z,9.32
2022-12-04T22:39:08.801Z,8.23
2022-12-04T22:41:36.173Z,9.85
2022-12-04T22:44:02.831Z,9.85
2022-12-04T22:46:29.514Z,9.55
2022-12-04T22:48:56.056Z,9.23
2022-12-04T22:51:22.932Z,8.75
2022-12-04T22:53:52.022Z,9.48
2022-12-04T22:56:27.710Z,8.82
2022-12-04T22:58:55.113Z,11.02
2022-12-04T23:01:39.713Z,9.52
2022-12-04T23:04:06.306Z,9.30
2022-12-04T23:06:34.167Z,10.70
2022-12-04T23:09:11.382Z,9.40
2022-12-04T23:11:38.189Z,10.35
2022-12-04T23:14:07.214Z,9.60
2022-12-04T23:16:37.061Z,8.82
2022-12-04T23:19:04.590Z,8.75
2022-12-04T23:21:31.253Z,9.60
2022-12-04T23:23:57.820Z,10.00
2022-12-04T23:26:31.072Z,8.68
2022-12-04T23:28:58.193Z,9.65
2022-12-04T23:31:25.590Z,10.57
2022-12-04T23:33:52.135Z,9.20
2022-12-04T23:36:18.749Z,9.18
2022-12-04T23:38:45.473Z,10.30
2022-12-04T23:41:18.108Z,9.52
2022-12-04T23:43:45.151Z,9.95
2022-12-04T23:46:12.831Z,9.18
2022-12-04T23:48:40.823Z,9.27
2022-12-04T23:51:08.475Z,7.85
2022-12-04T23:53:35.226Z,8.15
2022-12-04T23:56:12.402Z,8.73
2022-12-04T23:58:39.583Z,9.93
